sensor_id;sensor_type;location;lat;lon;timestamp;P1;durP1;ratioP1;P2;durP2;ratioP2
22644;SDS011;11489;50.834;6.752;2023-04-03T00:01:32;5.70;;;3.40;;
22644;SDS011;11489;50.834;6.752;2023-04-03T00:03:58;4.03;;;2.63;;
22644;SDS011;11489;50.834;6.752;2023-04-03T00:06:24;5.33;;;3.00;;
22644;SDS011;11489;50.834;6.752;2023-04-03T00:08:51;3.57;;;2.50;;
22644;SDS011;11489;50.834;6.752;2023-04-03T00:11:18;6.50;;;2.57;;
22644;SDS011;11489;50.834;6.752;2023-04-03T00:13:45;5.13;;;2.60;;
22644;SDS011;11489;50.834;6.752;2023-04-03T00:16:11;3.93;;;2.53;;
22644;SDS011;11489;50.834;6.752;2023-04-03T00:18:40;4.13;;;2.67;;
22644;SDS011;11489;50.834;6.752;2023-04-03T00:21:06;6.33;;;2.67;;
22644;SDS011;11489;50.834;6.752;2023-04-03T00:23:33;5.20;;;2.90;;
22644;SDS011;11489;50.834;6.752;2023-04-03T00:25:59;5.93;;;2.57;;
22644;SDS011;11489;50.834;6.752;2023-04-03T00:28:25;6.80;;;2.53;;
22644;SDS011;11489;50.834;6.752;2023-04-03T00:30:51;3.97;;;2.57;;
22644;SDS011;11489;50.834;6.752;2023-04-03T00:33:17;4.87;;;2.70;;
22644;SDS011;11489;50.834;6.752;2023-04-03T00:35:46;6.13;;;2.50;;
22644;SDS011;11489;50.834;6.752;2023-04-03T00:38:13;5.40;;;2.67;;
22644;SDS011;11489;50.834;6.752;2023-04-03T00:40:42;5.20;;;2.60;;
22644;SDS011;11489;50.834;6.752;2023-04-03T00:43:14;4.97;;;2.30;;
22644;SDS011;11489;50.834;6.752;2023-04-03T00:45:43;5.53;;;2.80;;
22644;SDS011;11489;50.834;6.752;2023-04-03T00:48:15;6.57;;;2.40;;
22644;SDS011;11489;50.834;6.752;2023-04-03T00:50:46;6.90;;;2.60;;
22644;SDS011;11489;50.834;6.752;2023-04-03T00:53:17;6.53;;;2.90;;
22644;SDS011;11489;50.834;6.752;2023-04-03T00:55:48;5.37;;;2.90;;
22644;SDS011;11489;50.834;6.752;2023-04-03T00:58:17;5.30;;;3.10;;
22644;SDS011;11489;50.834;6.752;2023-04-03T01:00:46;5.57;;;3.30;;
22644;SDS011;11489;50.834;6.752;2023-04-03T01:03:18;6.60;;;3.40;;
22644;SDS011;11489;50.834;6.752;2023-04-03T01:05:45;5.70;;;3.10;;
22644;SDS011;11489;50.834;6.752;2023-04-03T01:08:11;8.77;;;3.30;;
22644;SDS011;11489;50.834;6.752;2023-04-03T01:10:36;6.13;;;3.03;;
22644;SDS011;11489;50.834;6.752;2023-04-03T01:13:02;8.23;;;3.30;;
22644;SDS011;11489;50.834;6.752;2023-04-03T01:15:50;7.63;;;3.33;;
22644;SDS011;11489;50.834;6.752;2023-04-03T01:18:16;6.20;;;3.07;;
22644;SDS011;11489;50.834;6.752;2023-04-03T01:25:58;4.40;;;2.77;;
22644;SDS011;11489;50.834;6.752;2023-04-03T01:28:28;5.97;;;3.30;;
22644;SDS011;11489;50.834;6.752;2023-04-03T01:30:59;5.20;;;3.20;;
22644;SDS011;11489;50.834;6.752;2023-04-03T01:33:35;6.63;;;3.47;;
22644;SDS011;11489;50.834;6.752;2023-04-03T01:36:02;5.17;;;2.97;;
22644;SDS011;11489;50.834;6.752;2023-04-03T01:38:29;5.00;;;3.10;;
22644;SDS011;11489;50.834;6.752;2023-04-03T01:40:54;5.57;;;3.40;;
22644;SDS011;11489;50.834;6.752;2023-04-03T01:43:20;5.57;;;3.53;;
22644;SDS011;11489;50.834;6.752;2023-04-03T01:45:46;8.37;;;4.30;;
22644;SDS011;11489;50.834;6.752;2023-04-03T01:48:12;7.10;;;3.77;;
22644;SDS011;11489;50.834;6.752;2023-04-03T01:50:38;7.47;;;4.10;;
22644;SDS011;11489;50.834;6.752;2023-04-03T01:53:04;8.90;;;4.07;;
22644;SDS011;11489;50.834;6.752;2023-04-03T01:55:30;6.77;;;4.20;;
22644;SDS011;11489;50.834;6.752;2023-04-03T01:57:55;7.47;;;4.00;;
22644;SDS011;11489;50.834;6.752;2023-04-03T02:00:21;6.13;;;4.10;;
22644;SDS011;11489;50.834;6.752;2023-04-03T02:02:46;8.00;;;3.90;;
22644;SDS011;11489;50.834;6.752;2023-04-03T02:05:12;7.00;;;3.70;;
22644;SDS011;11489;50.834;6.752;2023-04-03T02:07:38;8.07;;;4.10;;
22644;SDS011;11489;50.834;6.752;2023-04-03T02:10:03;6.57;;;4.37;;
22644;SDS011;11489;50.834;6.752;2023-04-03T02:12:29;6.47;;;4.13;;
22644;SDS011;11489;50.834;6.752;2023-04-03T02:14:55;7.43;;;4.03;;
22644;SDS011;11489;50.834;6.752;2023-04-03T02:17:21;6.13;;;3.87;;
22644;SDS011;11489;50.834;6.752;2023-04-03T02:19:46;7.67;;;4.07;;
22644;SDS011;11489;50.834;6.752;2023-04-03T02:22:12;9.50;;;4.00;;
22644;SDS011;11489;50.834;6.752;2023-04-03T02:24:38;6.33;;;4.20;;
22644;SDS011;11489;50.834;6.752;2023-04-03T02:27:05;7.63;;;4.03;;
22644;SDS011;11489;50.834;6.752;2023-04-03T02:29:31;6.67;;;4.07;;
22644;SDS011;11489;50.834;6.752;2023-04-03T02:31:57;6.73;;;4.23;;
22644;SDS011;11489;50.834;6.752;2023-04-03T02:34:22;7.87;;;4.30;;
22644;SDS011;11489;50.834;6.752;2023-04-03T02:36:48;5.27;;;3.87;;
22644;SDS011;11489;50.834;6.752;2023-04-03T02:39:14;5.03;;;3.77;;
22644;SDS011;11489;50.834;6.752;2023-04-03T02:41:39;6.50;;;4.00;;
22644;SDS011;11489;50.834;6.752;2023-04-03T02:44:06;5.53;;;3.77;;
22644;SDS011;11489;50.834;6.752;2023-04-03T02:46:32;10.03;;;4.00;;
22644;SDS011;11489;50.834;6.752;2023-04-03T02:48:58;5.10;;;3.40;;
22644;SDS011;11489;50.834;6.752;2023-04-03T02:51:24;6.07;;;4.10;;
22644;SDS011;11489;50.834;6.752;2023-04-03T02:53:50;4.27;;;3.67;;
22644;SDS011;11489;50.834;6.752;2023-04-03T02:56:16;6.47;;;3.57;;
22644;SDS011;11489;50.834;6.752;2023-04-03T02:58:43;5.87;;;3.97;;
22644;SDS011;11489;50.834;6.752;2023-04-03T03:01:09;7.03;;;3.97;;
22644;SDS011;11489;50.834;6.752;2023-04-03T03:03:35;8.53;;;4.43;;
22644;SDS011;11489;50.834;6.752;2023-04-03T03:06:08;6.37;;;4.27;;
22644;SDS011;11489;50.834;6.752;2023-04-03T03:08:35;6.67;;;4.00;;
22644;SDS011;11489;50.834;6.752;2023-04-03T03:11:01;6.60;;;4.30;;
22644;SDS011;11489;50.834;6.752;2023-04-03T03:13:28;5.57;;;4.00;;
22644;SDS011;11489;50.834;6.752;2023-04-03T03:15:53;7.13;;;4.53;;
22644;SDS011;11489;50.834;6.752;2023-04-03T03:18:19;7.50;;;4.13;;
22644;SDS011;11489;50.834;6.752;2023-04-03T03:20:45;7.50;;;4.20;;
22644;SDS011;11489;50.834;6.752;2023-04-03T03:23:11;10.43;;;4.87;;
22644;SDS011;11489;50.834;6.752;2023-04-03T03:25:40;7.20;;;4.50;;
22644;SDS011;11489;50.834;6.752;2023-04-03T03:28:06;6.07;;;4.60;;
22644;SDS011;11489;50.834;6.752;2023-04-03T03:30:32;8.63;;;4.63;;
22644;SDS011;11489;50.834;6.752;2023-04-03T03:32:58;9.17;;;4.83;;
22644;SDS011;11489;50.834;6.752;2023-04-03T03:35:23;8.60;;;5.20;;
22644;SDS011;11489;50.834;6.752;2023-04-03T03:37:49;7.63;;;5.07;;
22644;SDS011;11489;50.834;6.752;2023-04-03T03:40:15;8.33;;;4.97;;
22644;SDS011;11489;50.834;6.752;2023-04-03T03:42:40;7.53;;;4.97;;
22644;SDS011;11489;50.834;6.752;2023-04-03T03:45:06;6.60;;;4.93;;
22644;SDS011;11489;50.834;6.752;2023-04-03T03:47:33;8.70;;;5.37;;
22644;SDS011;11489;50.834;6.752;2023-04-03T03:49:58;8.73;;;5.50;;
22644;SDS011;11489;50.834;6.752;2023-04-03T03:52:24;9.17;;;5.30;;
22644;SDS011;11489;50.834;6.752;2023-04-03T03:54:50;9.53;;;5.13;;
22644;SDS011;11489;50.834;6.752;2023-04-03T03:57:16;7.93;;;5.80;;
22644;SDS011;11489;50.834;6.752;2023-04-03T03:59:41;10.53;;;6.50;;
22644;SDS011;11489;50.834;6.752;2023-04-03T04:02:09;10.43;;;6.50;;
22644;SDS011;11489;50.834;6.752;2023-04-03T04:04:35;9.83;;;6.40;;
22644;SDS011;11489;50.834;6.752;2023-04-03T04:07:02;10.67;;;6.40;;
22644;SDS011;11489;50.834;6.752;2023-04-03T04:09:28;10.13;;;5.80;;
22644;SDS011;11489;50.834;6.752;2023-04-03T04:11:54;11.10;;;5.60;;
22644;SDS011;11489;50.834;6.752;2023-04-03T04:14:20;9.33;;;6.00;;
22644;SDS011;11489;50.834;6.752;2023-04-03T04:16:46;9.87;;;6.07;;
22644;SDS011;11489;50.834;6.752;2023-04-03T04:19:12;8.63;;;6.10;;
22644;SDS011;11489;50.834;6.752;2023-04-03T04:21:38;9.50;;;6.10;;
22644;SDS011;11489;50.834;6.752;2023-04-03T04:24:04;8.63;;;6.47;;
22644;SDS011;11489;50.834;6.752;2023-04-03T04:26:31;11.10;;;6.80;;
22644;SDS011;11489;50.834;6.752;2023-04-03T04:28:56;10.47;;;6.33;;
22644;SDS011;11489;50.834;6.752;2023-04-03T04:31:22;12.87;;;6.90;;
22644;SDS011;11489;50.834;6.752;2023-04-03T04:33:48;11.23;;;7.10;;
22644;SDS011;11489;50.834;6.752;2023-04-03T04:36:13;12.13;;;6.63;;
22644;SDS011;11489;50.834;6.752;2023-04-03T04:38:40;7.83;;;6.07;;
22644;SDS011;11489;50.834;6.752;2023-04-03T04:41:06;9.70;;;6.13;;
22644;SDS011;11489;50.834;6.752;2023-04-03T04:43:31;9.47;;;6.50;;
22644;SDS011;11489;50.834;6.752;2023-04-03T04:46:01;11.87;;;5.90;;
22644;SDS011;11489;50.834;6.752;2023-04-03T04:48:28;10.13;;;6.00;;
22644;SDS011;11489;50.834;6.752;2023-04-03T04:50:54;11.13;;;6.30;;
22644;SDS011;11489;50.834;6.752;2023-04-03T04:53:20;10.57;;;6.37;;
22644;SDS011;11489;50.834;6.752;2023-04-03T04:55:46;10.53;;;6.47;;
22644;SDS011;11489;50.834;6.752;2023-04-03T04:58:11;9.93;;;6.10;;
22644;SDS011;11489;50.834;6.752;2023-04-03T05:00:37;15.47;;;6.50;;
22644;SDS011;11489;50.834;6.752;2023-04-03T05:03:02;11.80;;;6.17;;
22644;SDS011;11489;50.834;6.752;2023-04-03T05:05:28;12.23;;;6.23;;
22644;SDS011;11489;50.834;6.752;2023-04-03T05:07:54;8.33;;;6.20;;
22644;SDS011;11489;50.834;6.752;2023-04-03T05:10:20;11.73;;;6.17;;
22644;SDS011;11489;50.834;6.752;2023-04-03T05:12:45;10.10;;;6.07;;
22644;SDS011;11489;50.834;6.752;2023-04-03T05:15:11;10.43;;;5.67;;
22644;SDS011;11489;50.834;6.752;2023-04-03T05:17:37;9.83;;;6.20;;
22644;SDS011;11489;50.834;6.752;2023-04-03T05:20:03;14.80;;;7.10;;
22644;SDS011;11489;50.834;6.752;2023-04-03T05:22:30;9.90;;;6.07;;
22644;SDS011;11489;50.834;6.752;2023-04-03T05:24:56;13.53;;;6.50;;
22644;SDS011;11489;50.834;6.752;2023-04-03T05:27:22;14.00;;;6.67;;
22644;SDS011;11489;50.834;6.752;2023-04-03T05:29:49;12.07;;;6.90;;
22644;SDS011;11489;50.834;6.752;2023-04-03T05:32:15;12.13;;;6.50;;
22644;SDS011;11489;50.834;6.752;2023-04-03T05:34:41;9.33;;;5.63;;
22644;SDS011;11489;50.834;6.752;2023-04-03T05:37:07;12.83;;;7.00;;
22644;SDS011;11489;50.834;6.752;2023-04-03T05:39:33;15.03;;;7.77;;
22644;SDS011;11489;50.834;6.752;2023-04-03T05:41:59;14.73;;;6.97;;
22644;SDS011;11489;50.834;6.752;2023-04-03T05:44:25;11.70;;;6.90;;
22644;SDS011;11489;50.834;6.752;2023-04-03T05:46:51;11.40;;;6.87;;
22644;SDS011;11489;50.834;6.752;2023-04-03T05:49:16;13.67;;;6.87;;
22644;SDS011;11489;50.834;6.752;2023-04-03T05:51:42;12.17;;;6.17;;
22644;SDS011;11489;50.834;6.752;2023-04-03T05:56:41;9.67;;;5.90;;
22644;SDS011;11489;50.834;6.752;2023-04-03T05:59:06;9.73;;;5.17;;
22644;SDS011;11489;50.834;6.752;2023-04-03T06:01:32;10.60;;;5.60;;
22644;SDS011;11489;50.834;6.752;2023-04-03T06:03:59;8.97;;;5.60;;
22644;SDS011;11489;50.834;6.752;2023-04-03T06:06:24;12.10;;;5.63;;
22644;SDS011;11489;50.834;6.752;2023-04-03T06:08:50;10.23;;;5.87;;
22644;SDS011;11489;50.834;6.752;2023-04-03T06:11:16;11.00;;;6.03;;
22644;SDS011;11489;50.834;6.752;2023-04-03T06:13:42;10.73;;;5.63;;
22644;SDS011;11489;50.834;6.752;2023-04-03T06:16:09;11.67;;;6.20;;
22644;SDS011;11489;50.834;6.752;2023-04-03T06:18:39;13.27;;;6.07;;
22644;SDS011;11489;50.834;6.752;2023-04-03T06:21:05;13.43;;;5.00;;
22644;SDS011;11489;50.834;6.752;2023-04-03T06:23:32;11.47;;;5.27;;
22644;SDS011;11489;50.834;6.752;2023-04-03T06:25:58;10.37;;;4.67;;
22644;SDS011;11489;50.834;6.752;2023-04-03T06:28:24;13.47;;;4.77;;
22644;SDS011;11489;50.834;6.752;2023-04-03T06:30:50;7.37;;;4.07;;
22644;SDS011;11489;50.834;6.752;2023-04-03T06:33:16;7.50;;;4.20;;
22644;SDS011;11489;50.834;6.752;2023-04-03T06:35:41;7.13;;;3.83;;
22644;SDS011;11489;50.834;6.752;2023-04-03T06:38:07;7.73;;;3.93;;
22644;SDS011;11489;50.834;6.752;2023-04-03T06:40:34;6.20;;;3.60;;
22644;SDS011;11489;50.834;6.752;2023-04-03T06:43:00;7.37;;;3.27;;
22644;SDS011;11489;50.834;6.752;2023-04-03T06:45:26;6.33;;;3.07;;
22644;SDS011;11489;50.834;6.752;2023-04-03T06:47:52;7.30;;;3.53;;
22644;SDS011;11489;50.834;6.752;2023-04-03T06:50:18;7.57;;;3.40;;
22644;SDS011;11489;50.834;6.752;2023-04-03T06:52:44;10.70;;;3.23;;
22644;SDS011;11489;50.834;6.752;2023-04-03T06:55:10;10.50;;;4.60;;
22644;SDS011;11489;50.834;6.752;2023-04-03T06:57:36;9.57;;;4.70;;
22644;SDS011;11489;50.834;6.752;2023-04-03T07:00:03;9.93;;;4.90;;
22644;SDS011;11489;50.834;6.752;2023-04-03T07:02:30;11.10;;;4.43;;
22644;SDS011;11489;50.834;6.752;2023-04-03T07:04:56;8.90;;;3.67;;
22644;SDS011;11489;50.834;6.752;2023-04-03T07:07:21;7.43;;;3.43;;
22644;SDS011;11489;50.834;6.752;2023-04-03T07:09:47;7.77;;;3.80;;
22644;SDS011;11489;50.834;6.752;2023-04-03T07:12:13;7.57;;;3.80;;
22644;SDS011;11489;50.834;6.752;2023-04-03T07:14:39;10.27;;;3.73;;
22644;SDS011;11489;50.834;6.752;2023-04-03T07:17:04;10.23;;;3.63;;
22644;SDS011;11489;50.834;6.752;2023-04-03T07:19:30;5.93;;;3.13;;
22644;SDS011;11489;50.834;6.752;2023-04-03T07:21:56;7.13;;;2.63;;
22644;SDS011;11489;50.834;6.752;2023-04-03T07:24:22;7.47;;;3.00;;
22644;SDS011;11489;50.834;6.752;2023-04-03T07:26:50;8.93;;;3.53;;
22644;SDS011;11489;50.834;6.752;2023-04-03T07:29:17;10.37;;;3.67;;
22644;SDS011;11489;50.834;6.752;2023-04-03T07:31:43;17.37;;;4.73;;
22644;SDS011;11489;50.834;6.752;2023-04-03T07:34:09;9.17;;;2.90;;
22644;SDS011;11489;50.834;6.752;2023-04-03T07:36:36;9.93;;;3.17;;
22644;SDS011;11489;50.834;6.752;2023-04-03T07:39:02;7.43;;;2.67;;
22644;SDS011;11489;50.834;6.752;2023-04-03T07:41:28;5.87;;;2.80;;
22644;SDS011;11489;50.834;6.752;2023-04-03T07:43:55;6.23;;;3.17;;
22644;SDS011;11489;50.834;6.752;2023-04-03T07:46:22;9.07;;;3.05;;
22644;SDS011;11489;50.834;6.752;2023-04-03T07:48:48;5.60;;;2.90;;
22644;SDS011;11489;50.834;6.752;2023-04-03T07:51:14;6.30;;;2.60;;
22644;SDS011;11489;50.834;6.752;2023-04-03T07:53:40;5.97;;;2.80;;
22644;SDS011;11489;50.834;6.752;2023-04-03T07:56:06;5.53;;;2.75;;
22644;SDS011;11489;50.834;6.752;2023-04-03T07:58:32;8.88;;;2.80;;
22644;SDS011;11489;50.834;6.752;2023-04-03T08:00:58;8.35;;;2.85;;
22644;SDS011;11489;50.834;6.752;2023-04-03T08:03:24;8.52;;;2.30;;
22644;SDS011;11489;50.834;6.752;2023-04-03T08:05:50;8.38;;;2.67;;
22644;SDS011;11489;50.834;6.752;2023-04-03T08:08:17;10.02;;;3.42;;
22644;SDS011;11489;50.834;6.752;2023-04-03T08:10:52;8.45;;;3.30;;
22644;SDS011;11489;50.834;6.752;2023-04-03T08:13:19;7.82;;;3.13;;
22644;SDS011;11489;50.834;6.752;2023-04-03T08:15:46;12.52;;;3.28;;
22644;SDS011;11489;50.834;6.752;2023-04-03T08:18:13;7.13;;;2.72;;
22644;SDS011;11489;50.834;6.752;2023-04-03T08:20:39;7.88;;;2.50;;
22644;SDS011;11489;50.834;6.752;2023-04-03T08:23:06;7.85;;;2.60;;
22644;SDS011;11489;50.834;6.752;2023-04-03T08:25:32;7.90;;;2.70;;
22644;SDS011;11489;50.834;6.752;2023-04-03T08:27:59;5.95;;;2.17;;
22644;SDS011;11489;50.834;6.752;2023-04-03T08:30:25;5.47;;;2.30;;
22644;SDS011;11489;50.834;6.752;2023-04-03T08:32:51;4.07;;;1.85;;
22644;SDS011;11489;50.834;6.752;2023-04-03T08:35:16;9.82;;;2.80;;
22644;SDS011;11489;50.834;6.752;2023-04-03T08:37:42;8.02;;;2.13;;
22644;SDS011;11489;50.834;6.752;2023-04-03T08:40:10;6.70;;;2.20;;
22644;SDS011;11489;50.834;6.752;2023-04-03T08:45:12;5.97;;;2.00;;
22644;SDS011;11489;50.834;6.752;2023-04-03T08:47:47;16.10;;;3.40;;
22644;SDS011;11489;50.834;6.752;2023-04-03T08:50:21;8.38;;;2.50;;
22644;SDS011;11489;50.834;6.752;2023-04-03T08:53:06;6.50;;;2.65;;
22644;SDS011;11489;50.834;6.752;2023-04-03T08:55:45;7.30;;;2.50;;
22644;SDS011;11489;50.834;6.752;2023-04-03T08:58:19;5.57;;;1.95;;
22644;SDS011;11489;50.834;6.752;2023-04-03T09:00:49;4.18;;;2.13;;
22644;SDS011;11489;50.834;6.752;2023-04-03T09:03:18;10.75;;;2.53;;
22644;SDS011;11489;50.834;6.752;2023-04-03T09:05:52;6.95;;;2.17;;
22644;SDS011;11489;50.834;6.752;2023-04-03T09:08:52;3.97;;;2.10;;
22644;SDS011;11489;50.834;6.752;2023-04-03T09:17:00;5.00;;;2.22;;
22644;SDS011;11489;50.834;6.752;2023-04-03T09:22:26;6.43;;;2.55;;
22644;SDS011;11489;50.834;6.752;2023-04-03T09:27:53;5.97;;;2.30;;
22644;SDS011;11489;50.834;6.752;2023-04-03T09:30:23;8.32;;;2.20;;
22644;SDS011;11489;50.834;6.752;2023-04-03T09:32:51;3.88;;;2.20;;
22644;SDS011;11489;50.834;6.752;2023-04-03T09:35:20;3.78;;;1.50;;
22644;SDS011;11489;50.834;6.752;2023-04-03T09:38:01;9.07;;;2.08;;
22644;SDS011;11489;50.834;6.752;2023-04-03T09:42:57;3.00;;;1.75;;
22644;SDS011;11489;50.834;6.752;2023-04-03T09:45:41;6.43;;;1.85;;
22644;SDS011;11489;50.834;6.752;2023-04-03T09:48:12;4.72;;;2.00;;
22644;SDS011;11489;50.834;6.752;2023-04-03T09:56:18;5.25;;;1.80;;
22644;SDS011;11489;50.834;6.752;2023-04-03T09:59:06;3.90;;;2.03;;
22644;SDS011;11489;50.834;6.752;2023-04-03T10:01:41;4.72;;;1.73;;
22644;SDS011;11489;50.834;6.752;2023-04-03T10:09:18;5.63;;;1.60;;
22644;SDS011;11489;50.834;6.752;2023-04-03T10:12:05;4.05;;;1.88;;
22644;SDS011;11489;50.834;6.752;2023-04-03T10:14:40;5.22;;;1.60;;
22644;SDS011;11489;50.834;6.752;2023-04-03T10:17:25;4.13;;;1.67;;
22644;SDS011;11489;50.834;6.752;2023-04-03T10:20:28;4.82;;;2.00;;
22644;SDS011;11489;50.834;6.752;2023-04-03T10:28:37;7.63;;;1.60;;
22644;SDS011;11489;50.834;6.752;2023-04-03T10:37:13;6.70;;;1.60;;
22644;SDS011;11489;50.834;6.752;2023-04-03T10:39:59;6.05;;;1.73;;
22644;SDS011;11489;50.834;6.752;2023-04-03T10:43:03;4.60;;;1.42;;
22644;SDS011;11489;50.834;6.752;2023-04-03T10:46:02;3.95;;;1.42;;
22644;SDS011;11489;50.834;6.752;2023-04-03T10:48:35;4.63;;;1.90;;
22644;SDS011;11489;50.834;6.752;2023-04-03T10:51:24;3.78;;;1.60;;
22644;SDS011;11489;50.834;6.752;2023-04-03T10:56:47;5.05;;;1.30;;
22644;SDS011;11489;50.834;6.752;2023-04-03T10:59:36;6.03;;;1.63;;
22644;SDS011;11489;50.834;6.752;2023-04-03T11:05:05;5.00;;;1.67;;
22644;SDS011;11489;50.834;6.752;2023-04-03T11:07:40;3.50;;;1.40;;
22644;SDS011;11489;50.834;6.752;2023-04-03T11:10:20;4.38;;;1.80;;
22644;SDS011;11489;50.834;6.752;2023-04-03T11:15:48;4.30;;;1.70;;
22644;SDS011;11489;50.834;6.752;2023-04-03T11:18:25;5.50;;;1.40;;
22644;SDS011;11489;50.834;6.752;2023-04-03T11:21:02;3.28;;;1.40;;
22644;SDS011;11489;50.834;6.752;2023-04-03T11:23:34;7.82;;;1.80;;
22644;SDS011;11489;50.834;6.752;2023-04-03T11:26:06;2.72;;;1.50;;
22644;SDS011;11489;50.834;6.752;2023-04-03T11:28:35;7.80;;;1.75;;
22644;SDS011;11489;50.834;6.752;2023-04-03T11:31:07;5.13;;;1.20;;
22644;SDS011;11489;50.834;6.752;2023-04-03T11:33:51;3.53;;;1.38;;
22644;SDS011;11489;50.834;6.752;2023-04-03T11:36:26;2.22;;;1.20;;
22644;SDS011;11489;50.834;6.752;2023-04-03T11:39:25;4.65;;;1.25;;
22644;SDS011;11489;50.834;6.752;2023-04-03T11:41:55;3.25;;;1.35;;
22644;SDS011;11489;50.834;6.752;2023-04-03T11:44:38;5.70;;;1.58;;
22644;SDS011;11489;50.834;6.752;2023-04-03T11:47:05;4.20;;;1.25;;
22644;SDS011;11489;50.834;6.752;2023-04-03T11:49:52;4.15;;;1.20;;
22644;SDS011;11489;50.834;6.752;2023-04-03T12:05:58;2.65;;;1.10;;
22644;SDS011;11489;50.834;6.752;2023-04-03T12:13:37;4.35;;;1.10;;
22644;SDS011;11489;50.834;6.752;2023-04-03T12:32:06;2.25;;;1.00;;
22644;SDS011;11489;50.834;6.752;2023-04-03T12:45:24;2.13;;;0.90;;
22644;SDS011;11489;50.834;6.752;2023-04-03T12:47:51;2.60;;;1.02;;
22644;SDS011;11489;50.834;6.752;2023-04-03T12:50:23;3.50;;;1.30;;
22644;SDS011;11489;50.834;6.752;2023-04-03T12:53:02;2.75;;;1.15;;
22644;SDS011;11489;50.834;6.752;2023-04-03T12:55:29;3.13;;;1.13;;
22644;SDS011;11489;50.834;6.752;2023-04-03T12:57:56;2.38;;;0.90;;
22644;SDS011;11489;50.834;6.752;2023-04-03T13:02:57;2.33;;;1.00;;
22644;SDS011;11489;50.834;6.752;2023-04-03T13:05:23;3.70;;;1.20;;
22644;SDS011;11489;50.834;6.752;2023-04-03T13:07:52;2.78;;;1.00;;
22644;SDS011;11489;50.834;6.752;2023-04-03T13:10:22;1.90;;;1.10;;
22644;SDS011;11489;50.834;6.752;2023-04-03T13:12:49;1.27;;;0.90;;
22644;SDS011;11489;50.834;6.752;2023-04-03T13:17:50;2.83;;;1.20;;
22644;SDS011;11489;50.834;6.752;2023-04-03T13:22:49;3.13;;;1.30;;
22644;SDS011;11489;50.834;6.752;2023-04-03T13:25:19;2.50;;;0.90;;
22644;SDS011;11489;50.834;6.752;2023-04-03T13:27:46;3.47;;;1.20;;
22644;SDS011;11489;50.834;6.752;2023-04-03T13:30:23;3.05;;;1.13;;
22644;SDS011;11489;50.834;6.752;2023-04-03T13:32:56;4.20;;;1.23;;
22644;SDS011;11489;50.834;6.752;2023-04-03T13:35:28;1.45;;;0.90;;
22644;SDS011;11489;50.834;6.752;2023-04-03T13:37:59;2.28;;;0.98;;
22644;SDS011;11489;50.834;6.752;2023-04-03T13:40:26;1.58;;;0.88;;
22644;SDS011;11489;50.834;6.752;2023-04-03T13:43:03;1.67;;;0.90;;
22644;SDS011;11489;50.834;6.752;2023-04-03T13:45:53;2.15;;;0.88;;
22644;SDS011;11489;50.834;6.752;2023-04-03T13:48:42;1.77;;;0.95;;
22644;SDS011;11489;50.834;6.752;2023-04-03T13:53:42;4.00;;;1.13;;
22644;SDS011;11489;50.834;6.752;2023-04-03T13:56:17;1.15;;;0.80;;
22644;SDS011;11489;50.834;6.752;2023-04-03T13:58:53;6.15;;;1.10;;
22644;SDS011;11489;50.834;6.752;2023-04-03T14:01:21;1.95;;;0.80;;
22644;SDS011;11489;50.834;6.752;2023-04-03T14:04:01;2.50;;;0.95;;
22644;SDS011;11489;50.834;6.752;2023-04-03T14:06:35;2.55;;;1.05;;
22644;SDS011;11489;50.834;6.752;2023-04-03T14:09:01;1.75;;;1.00;;
22644;SDS011;11489;50.834;6.752;2023-04-03T14:11:28;1.20;;;0.82;;
22644;SDS011;11489;50.834;6.752;2023-04-03T14:13:59;2.05;;;0.88;;
22644;SDS011;11489;50.834;6.752;2023-04-03T14:16:29;3.05;;;1.00;;
22644;SDS011;11489;50.834;6.752;2023-04-03T14:18:57;2.40;;;1.10;;
22644;SDS011;11489;50.834;6.752;2023-04-03T14:21:23;1.92;;;0.90;;
22644;SDS011;11489;50.834;6.752;2023-04-03T14:23:49;2.28;;;1.08;;
22644;SDS011;11489;50.834;6.752;2023-04-03T14:26:19;2.15;;;0.90;;
22644;SDS011;11489;50.834;6.752;2023-04-03T14:28:47;2.75;;;1.30;;
22644;SDS011;11489;50.834;6.752;2023-04-03T14:31:15;1.65;;;0.80;;
22644;SDS011;11489;50.834;6.752;2023-04-03T14:33:43;1.77;;;0.90;;
22644;SDS011;11489;50.834;6.752;2023-04-03T14:36:22;1.52;;;1.00;;
22644;SDS011;11489;50.834;6.752;2023-04-03T14:38:51;1.52;;;0.93;;
22644;SDS011;11489;50.834;6.752;2023-04-03T14:41:19;2.05;;;1.00;;
22644;SDS011;11489;50.834;6.752;2023-04-03T14:43:47;3.90;;;1.17;;
22644;SDS011;11489;50.834;6.752;2023-04-03T14:46:18;2.03;;;1.05;;
22644;SDS011;11489;50.834;6.752;2023-04-03T14:48:48;3.30;;;0.90;;
22644;SDS011;11489;50.834;6.752;2023-04-03T14:51:14;2.13;;;0.90;;
22644;SDS011;11489;50.834;6.752;2023-04-03T14:53:42;6.80;;;1.42;;
22644;SDS011;11489;50.834;6.752;2023-04-03T14:56:19;2.78;;;1.23;;
22644;SDS011;11489;50.834;6.752;2023-04-03T14:58:51;1.35;;;1.20;;
22644;SDS011;11489;50.834;6.752;2023-04-03T15:01:24;4.43;;;1.40;;
22644;SDS011;11489;50.834;6.752;2023-04-03T15:03:50;2.25;;;1.10;;
22644;SDS011;11489;50.834;6.752;2023-04-03T15:06:16;1.77;;;1.10;;
22644;SDS011;11489;50.834;6.752;2023-04-03T15:08:42;4.13;;;1.30;;
22644;SDS011;11489;50.834;6.752;2023-04-03T15:11:09;1.95;;;1.20;;
22644;SDS011;11489;50.834;6.752;2023-04-03T15:13:36;2.53;;;1.05;;
22644;SDS011;11489;50.834;6.752;2023-04-03T15:16:02;2.63;;;1.30;;
22644;SDS011;11489;50.834;6.752;2023-04-03T15:18:30;2.63;;;1.00;;
22644;SDS011;11489;50.834;6.752;2023-04-03T15:20:59;6.15;;;1.10;;
22644;SDS011;11489;50.834;6.752;2023-04-03T15:23:25;1.85;;;1.05;;
22644;SDS011;11489;50.834;6.752;2023-04-03T15:25:51;4.75;;;1.50;;
22644;SDS011;11489;50.834;6.752;2023-04-03T15:30:55;1.77;;;1.13;;
22644;SDS011;11489;50.834;6.752;2023-04-03T15:33:21;2.63;;;1.35;;
22644;SDS011;11489;50.834;6.752;2023-04-03T15:35:46;6.38;;;1.25;;
22644;SDS011;11489;50.834;6.752;2023-04-03T15:38:12;2.72;;;1.13;;
22644;SDS011;11489;50.834;6.752;2023-04-03T15:40:38;3.13;;;1.33;;
22644;SDS011;11489;50.834;6.752;2023-04-03T15:43:04;2.38;;;1.20;;
22644;SDS011;11489;50.834;6.752;2023-04-03T15:45:31;3.97;;;1.13;;
22644;SDS011;11489;50.834;6.752;2023-04-03T15:47:58;2.83;;;1.20;;
22644;SDS011;11489;50.834;6.752;2023-04-03T15:50:24;4.25;;;1.30;;
22644;SDS011;11489;50.834;6.752;2023-04-03T15:52:50;2.92;;;1.17;;
22644;SDS011;11489;50.834;6.752;2023-04-03T15:55:23;2.15;;;1.30;;
22644;SDS011;11489;50.834;6.752;2023-04-03T15:57:53;1.65;;;1.13;;
22644;SDS011;11489;50.834;6.752;2023-04-03T16:00:19;2.00;;;1.20;;
22644;SDS011;11489;50.834;6.752;2023-04-03T16:02:46;3.72;;;1.10;;
22644;SDS011;11489;50.834;6.752;2023-04-03T16:05:13;1.83;;;0.93;;
22644;SDS011;11489;50.834;6.752;2023-04-03T16:07:40;1.33;;;0.93;;
22644;SDS011;11489;50.834;6.752;2023-04-03T16:10:07;2.65;;;1.15;;
22644;SDS011;11489;50.834;6.752;2023-04-03T16:12:34;1.65;;;1.05;;
22644;SDS011;11489;50.834;6.752;2023-04-03T16:15:01;2.10;;;1.10;;
22644;SDS011;11489;50.834;6.752;2023-04-03T16:17:27;2.30;;;1.10;;
22644;SDS011;11489;50.834;6.752;2023-04-03T16:19:53;2.25;;;1.10;;
22644;SDS011;11489;50.834;6.752;2023-04-03T16:22:20;2.03;;;1.10;;
22644;SDS011;11489;50.834;6.752;2023-04-03T16:24:48;1.35;;;1.00;;
22644;SDS011;11489;50.834;6.752;2023-04-03T16:27:14;1.58;;;0.90;;
22644;SDS011;11489;50.834;6.752;2023-04-03T16:29:40;2.63;;;1.30;;
22644;SDS011;11489;50.834;6.752;2023-04-03T16:32:06;2.58;;;1.30;;
22644;SDS011;11489;50.834;6.752;2023-04-03T16:34:32;1.98;;;1.20;;
22644;SDS011;11489;50.834;6.752;2023-04-03T16:36:58;1.60;;;1.10;;
22644;SDS011;11489;50.834;6.752;2023-04-03T16:39:24;2.63;;;1.30;;
22644;SDS011;11489;50.834;6.752;2023-04-03T16:41:50;2.97;;;1.40;;
22644;SDS011;11489;50.834;6.752;2023-04-03T16:44:16;2.97;;;1.05;;
22644;SDS011;11489;50.834;6.752;2023-04-03T16:46:41;2.85;;;1.10;;
22644;SDS011;11489;50.834;6.752;2023-04-03T16:49:07;4.70;;;1.55;;